This is the latest recevied weather packets stored in our database for station/object KI5GCD-13. If no packets are shown the sender has not sent any weather packets the latest 10 day(s).
| Time | Temp. | Humidity | Pressure | Rain* | Wind** | Luminosity | Snow |
|---|---|---|---|---|---|---|---|
| 1777491887 | 17.78° C | 60% | 1013.4 hPa | 0 mm | 1.79 m/s, 24° | - | - |
| 1777491587 | 17.78° C | 62% | 1013.5 hPa | 0 mm | 2.24 m/s, 41° | - | - |
| 1777491287 | 17.78° C | 62% | 1013.2 hPa | 0 mm | 0.89 m/s, 338° | - | - |
| 1777490987 | 17.22° C | 62% | 1013.4 hPa | 0 mm | 1.79 m/s, 61° | - | - |
| 1777490687 | 17.78° C | 62% | 1013.6 hPa | 0 mm | 0.89 m/s, 9° | - | - |
| 1777490388 | 17.22° C | 62% | 1013.6 hPa | 0 mm | 2.68 m/s, 48° | - | - |
| 1777490088 | 17.22° C | 63% | 1013.8 hPa | 0 mm | 2.68 m/s, 45° | - | - |
| 1777489787 | 17.22° C | 64% | 1013.6 hPa | 0 mm | 0.89 m/s, 28° | - | - |
| 1777489487 | 17.22° C | 61% | 1013.8 hPa | 0 mm | 2.68 m/s, 25° | - | - |
| 1777489187 | 16.67° C | 63% | 1013.7 hPa | 0 mm | 1.79 m/s, 331° | - | - |
| 1777488887 | 17.22° C | 61% | 1013.8 hPa | 0 mm | 1.79 m/s, 292° | - | - |
| 1777488587 | 17.78° C | 62% | 1013.6 hPa | 0 mm | 1.79 m/s, 29° | - | - |
| 1777488287 | 16.67° C | 64% | 1013.8 hPa | 0 mm | 0.89 m/s, 235° | - | - |
| 1777487987 | 17.22° C | 63% | 1013.9 hPa | 0 mm | 1.79 m/s, 358° | - | - |
| 1777487687 | 16.67° C | 62% | 1014 hPa | 0 mm | 2.68 m/s, 57° | - | - |
| 1777487387 | 16.67° C | 62% | 1013.9 hPa | 0 mm | 2.68 m/s, 35° | - | - |
| 1777487087 | 16.67° C | 62% | 1014 hPa | 0 mm | 3.58 m/s, 34° | - | - |
| 1777486787 | 16.67° C | 63% | 1014.1 hPa | 0 mm | 0.89 m/s, 84° | - | - |
| 1777486487 | 16.67° C | 64% | 1014.4 hPa | 0 mm | 1.34 m/s, 9° | - | - |
| 1777486187 | 17.22° C | 62% | 1014.3 hPa | 0 mm | 2.24 m/s, 343° | - | - |
| 1777485887 | 17.22° C | 65% | 1014.4 hPa | 0 mm | 0.89 m/s, 186° | - | - |
| 1777485587 | 16.11° C | 62% | 1014.5 hPa | 0 mm | 2.68 m/s, 356° | - | - |
| 1777485288 | 16.67° C | 64% | 1014.4 hPa | 0 mm | 1.79 m/s, 112° | - | - |
| 1777484988 | 16.11° C | 63% | 1014.8 hPa | 0 mm | 2.24 m/s, 13° | - | - |
| 1777484687 | 16.11° C | 65% | 1014.9 hPa | 0 mm | 2.24 m/s, 70° | - | - |
* Rain latest hour (hover to see other rain measurements)
** Current wind speed in m/s (hover to see current wind gust speed)